Latest Weather Observations for Shay Gap

IDW60801

Issued at 10:05 am WST Thursday 23 October 2014 (issued every 30 minutes, with the page automatically refreshed every 10 minutes)

About weather observations | Map of weather stations | Latest weather observations for WA | Other Formats
Station Details ID: 504045 Name: SHAY GAP Lat: -20.43 Lon: 120.13 Height: 173.83 m
Data from the previous 72 hours. | See also: Recent months for locations in Western Australia
Date/Time
WST
Temp
°C
App
Temp
°C
Dew
Point
Rel
Hum
%
Delta-T
°C
Wind Press
QNH
hPa
Press
MSL
hPa
Rain
since 9 am
mm
Dir
 
Spd
km/h
Gust
km/h
Spd
kts
Gust
kts
23/10:00am 36.3 28.8 3.5 13 17.4 SSE 32 46 17 25 1011.7 1010.5 -
23/09:30am 35.6 28.2 4.0 14 16.8 SSE 32 43 17 23 1011.7 1010.5 -
23/09:00am 34.1 28.0 4.7 16 15.7 SSE 26 35 14 19 1011.9 1010.7 0.0
23/08:30am 33.1 27.8 4.8 17 15.0 SSE 22 32 12 17 1011.9 1010.7 0.0
23/08:00am 32.5 27.4 4.3 17 14.8 SSE 20 28 11 15 1011.9 1010.7 0.0
23/07:30am 31.9 26.7 3.8 17 14.6 SSE 20 26 11 14 1011.7 1010.5 0.0
23/07:00am 32.2 26.0 4.1 17 14.7 SSE 26 33 14 18 1011.5 1010.3 0.0
23/06:30am 31.5 26.3 3.5 17 14.4 S 20 26 11 14 1011.4 1010.2 0.0
23/06:00am 30.5 25.5 3.5 18 13.9 S 19 22 10 12 1011.2 1010.0 0.0
23/05:30am 28.0 23.0 3.7 21 12.3 S 19 20 10 11 1010.8 1009.6 0.0
23/05:00am 26.8 22.8 5.1 25 11.2 S 15 17 8 9 1010.8 1009.6 0.0
23/04:30am 25.4 23.5 11.9 43 7.8 S 13 15 7 8 1010.5 1009.4 0.0
23/04:00am 25.8 25.6 13.0 45 7.5 SW 6 9 3 5 1010.6 1009.5 0.0
23/03:30am 25.6 24.6 13.5 47 7.2 SW 11 15 6 8 1010.5 1009.4 0.0
23/03:00am 24.4 23.6 11.7 45 7.3 NNW 7 11 4 6 1010.4 1009.3 0.0
23/02:30am 24.8 23.3 9.1 37 8.6 N 7 9 4 5 1010.0 1008.8 0.0
23/02:00am 26.1 23.4 9.0 34 9.4 NNE 13 15 7 8 1010.2 1009.1 0.0
23/01:30am 27.5 25.2 7.4 28 10.8 E 9 13 5 7 1010.3 1009.2 0.0
23/01:00am 30.9 28.2 7.4 23 12.9 WSW 11 13 6 7 1010.4 1009.3 0.0
23/12:30am 31.3 28.2 7.1 22 13.2 S 13 17 7 9 1010.8 1009.6 0.0
23/12:00am 29.2 26.8 7.2 25 11.9 SSW 9 15 5 8 1011.0 1009.8 0.0
 
Date/Time
WST
Temp
°C
App
Temp
°C
Dew
Point
Rel
Hum
%
Delta-T
°C
Wind Press
QNH
hPa
Press
MSL
hPa
Rain
since 9 am
mm
Dir
 
Spd
km/h
Gust
km/h
Spd
kts
Gust
kts
22/11:30pm 31.6 28.3 7.9 23 13.1 W 15 19 8 10 1011.1 1009.9 0.0
22/11:00pm 32.5 28.0 5.9 19 14.4 W 19 30 10 16 1011.4 1010.2 0.0
22/10:30pm 32.7 28.3 4.5 17 14.9 WSW 17 20 9 11 1011.6 1010.4 0.0
22/10:00pm 32.8 28.4 4.6 17 14.9 WSW 17 22 9 12 1011.6 1010.4 0.0
22/09:30pm 32.1 27.9 4.0 17 14.7 WSW 15 17 8 9 1011.7 1010.5 0.0
22/09:00pm 33.6 27.7 -2.2 10 17.0 W 19 24 10 13 1011.6 1010.4 0.0
22/08:30pm 35.1 29.2 -2.5 9 18.0 SSW 19 24 10 13 1011.4 1010.2 0.0
22/08:00pm 34.5 29.1 -1.5 10 17.4 SW 17 20 9 11 1011.2 1010.0 0.0
22/07:30pm 35.3 29.8 -2.3 9 18.1 SW 17 20 9 11 1011.0 1009.8 0.0
22/07:00pm 34.1 29.2 -0.5 11 17.0 SW 15 20 8 11 1010.6 1009.5 0.0
22/06:30pm 35.1 30.5 -1.1 10 17.7 SW 13 15 7 8 1010.4 1009.3 0.0
22/06:00pm 37.9 32.8 -2.0 8 19.6 SW 15 20 8 11 1010.1 1009.0 0.0
22/05:30pm 39.6 34.7 -0.8 8 20.4 SSW 15 24 8 13 1009.8 1008.6 0.0
22/05:00pm 40.6 36.3 -1.9 7 21.3 SSW 11 22 6 12 1009.6 1008.4 0.0
22/04:30pm 40.9 37.0 -1.6 7 21.4 SW 9 13 5 7 1009.6 1008.4 0.0
22/04:00pm 41.0 37.1 -1.6 7 21.5 WSW 9 17 5 9 1009.6 1008.4 0.0
22/03:30pm 41.8 36.1 -1.0 7 21.9 SSW 19 28 10 15 1009.6 1008.4 0.0
22/03:00pm 41.0 36.3 -1.6 7 21.5 SSE 13 24 7 13 1009.9 1008.7 0.0
22/02:30pm 41.6 35.7 -1.1 7 21.7 SSW 20 32 11 17 1010.1 1009.0 0.0
22/02:00pm 41.7 35.8 -1.1 7 21.8 SSE 20 32 11 17 1010.4 1009.3 0.0
22/01:30pm 40.4 34.9 -2.0 7 21.1 S 17 26 9 14 1011.0 1009.8 0.0
22/01:00pm 40.5 35.4 -1.9 7 21.2 S 15 26 8 14 1011.4 1010.2 0.0
22/12:30pm 40.8 35.0 -1.7 7 21.3 S 19 32 10 17 1011.9 1010.7 0.0
22/12:00pm 40.3 34.4 -2.1 7 21.1 S 19 32 10 17 1012.5 1011.3 0.0
22/11:30am 40.0 33.1 -2.3 7 21.0 SSW 24 35 13 19 1012.7 1011.5 0.0
22/11:00am 39.8 31.8 -2.4 7 20.8 SSE 30 35 16 19 1013.2 1012.0 0.0
22/10:30am 38.8 30.3 -3.2 7 20.4 SSE 32 39 17 21 1013.5 1012.3 0.0
22/10:00am 38.6 30.1 -3.3 7 20.3 S 32 43 17 23 1013.8 1012.6 0.0
22/09:30am 37.6 29.2 -2.2 8 19.4 SSE 32 41 17 22 1013.8 1012.6 0.0
22/09:00am 36.0 28.1 -1.8 9 18.4 SE 30 39 16 21 1014.1 1012.9 0.0
22/08:30am 33.9 27.1 -2.0 10 17.2 S 24 30 13 16 1014.1 1012.9 0.0
22/08:00am 32.2 24.6 -2.0 11 16.2 S 28 33 15 18 1013.8 1012.6 0.0
22/07:30am 31.5 24.8 -1.3 12 15.6 S 24 32 13 17 1013.4 1012.2 0.0
22/07:00am 30.4 24.2 -0.1 14 14.7 S 22 28 12 15 1013.3 1012.1 0.0
22/06:30am 29.0 23.4 1.5 17 13.5 SSE 20 26 11 14 1013.3 1012.1 0.0
22/06:00am 26.3 21.1 2.3 21 11.7 SSE 19 26 10 14 1012.9 1011.7 0.0
22/05:30am 27.7 22.3 2.7 20 12.4 S 20 28 11 15 1012.4 1011.2 0.0
22/05:00am 27.9 21.8 2.9 20 12.5 S 24 30 13 16 1012.4 1011.2 0.0
22/04:30am 29.1 23.1 3.1 19 13.1 S 24 33 13 18 1011.9 1010.7 0.0
22/04:00am 28.7 23.6 4.2 21 12.6 S 20 26 11 14 1011.8 1010.6 0.0
22/03:30am 28.6 22.9 4.8 22 12.3 SSW 24 30 13 16 1011.6 1010.4 0.0
22/03:00am 29.2 23.8 4.6 21 12.8 SSW 22 28 12 15 1011.8 1010.6 0.0
22/02:30am 29.8 24.8 4.4 20 13.2 SSW 20 30 11 16 1012.4 1011.2 0.0
22/02:00am 29.2 24.5 5.3 22 12.5 SSW 19 22 10 12 1012.4 1011.2 0.0
22/01:30am 26.9 23.9 5.8 26 11.0 W 11 15 6 8 1012.8 1011.6 0.0
22/01:00am 29.2 25.8 6.0 23 12.3 SW 13 17 7 9 1013.2 1012.0 0.0
22/12:30am 29.2 27.0 6.0 23 12.3 S 7 11 4 6 1013.4 1012.2 0.0
22/12:00am 29.5 25.7 5.6 22 12.6 SW 15 17 8 9 1013.7 1012.5 0.0
 
Date/Time
WST
Temp
°C
App
Temp
°C
Dew
Point
Rel
Hum
%
Delta-T
°C
Wind Press
QNH
hPa
Press
MSL
hPa
Rain
since 9 am
mm
Dir
 
Spd
km/h
Gust
km/h
Spd
kts
Gust
kts
21/11:30pm 29.2 25.8 6.0 23 12.3 SW 13 15 7 8 1014.0 1012.8 0.0
21/11:00pm 29.6 26.7 6.3 23 12.5 WSW 11 13 6 7 1014.3 1013.1 0.0
21/10:30pm 30.4 28.2 6.3 22 12.9 WSW 7 11 4 6 1014.6 1013.4 0.0
21/10:00pm 30.7 26.9 5.9 21 13.2 SE 15 19 8 10 1014.9 1013.7 0.0
21/09:30pm 31.3 27.9 5.7 20 13.7 SW 13 17 7 9 1014.8 1013.6 0.0
21/09:00pm 32.2 28.4 5.7 19 14.2 WSW 15 20 8 11 1014.6 1013.4 0.0
21/08:30pm 33.5 28.8 5.1 17 15.2 WSW 19 26 10 14 1014.3 1013.1 0.0
21/08:00pm 33.8 29.4 4.5 16 15.6 WSW 17 28 9 15 1014.1 1012.9 0.0
21/07:30pm 32.2 28.8 4.1 17 14.7 SSW 11 15 6 8 1013.8 1012.6 0.0
21/07:00pm 33.7 29.3 2.5 14 16.0 SSW 15 17 8 9 1013.4 1012.2 0.0
21/06:30pm 34.3 30.5 1.9 13 16.6 SSW 11 13 6 7 1013.0 1011.8 0.0
21/06:00pm 37.0 32.2 0.4 10 18.6 SW 15 19 8 10 1012.8 1011.6 0.0
21/05:30pm 38.6 34.9 0.1 9 19.6 WSW 9 11 5 6 1012.6 1011.4 0.0
21/05:00pm 39.4 35.8 0.7 9 20.0 WSW 9 13 5 7 1012.3 1011.1 0.0
21/04:30pm 39.3 33.8 0.6 9 19.9 WNW 19 24 10 13 1012.2 1011.0 0.0
21/04:00pm 39.8 34.7 1.0 9 20.2 W 17 24 9 13 1012.1 1010.9 0.0
21/03:30pm 39.9 34.2 -0.5 8 20.6 WNW 19 41 10 22 1012.3 1011.1 0.0
21/03:00pm 39.8 33.2 -0.6 8 20.5 W 24 35 13 19 1012.4 1011.2 0.0
21/02:43pm 39.7 32.2 0.9 9 20.1 WNW 30 32 16 17 1012.4 1011.2 0.0
21/02:30pm 39.1 35.5 0.5 9 19.8 S 9 13 5 7 1012.4 1011.2 0.0
21/02:00pm 39.7 33.8 -0.7 8 20.5 W 20 32 11 17 1012.9 1011.7 0.0
21/01:30pm 39.8 34.4 1.0 9 20.2 WNW 19 30 10 16 1013.3 1012.1 0.0
21/01:00pm 39.3 34.9 0.6 9 19.9 W 13 19 7 10 1013.9 1012.7 0.0
21/12:30pm 37.8 33.9 1.0 10 18.9 WSW 11 17 6 9 1014.5 1013.3 0.0
21/12:00pm 37.6 33.6 0.8 10 18.8 W 11 22 6 12 1015.0 1013.8 0.0
21/11:30am 37.8 32.4 1.0 10 18.9 SSW 19 28 10 15 1015.5 1014.4 0.0
21/11:00am 37.2 31.7 1.8 11 18.3 SW 20 30 11 16 1015.9 1014.8 0.0
21/10:30am 36.5 32.2 1.3 11 18.0 SSW 13 20 7 11 1016.3 1015.2 0.0
21/10:00am 36.8 31.8 1.5 11 18.2 SSW 17 28 9 15 1016.9 1015.7 0.0
21/09:30am 35.2 29.8 2.6 13 16.9 S 20 28 11 15 1017.2 1016.0 0.0
21/09:00am 34.4 28.9 4.0 15 16.1 S 22 28 12 15 1017.2 1016.0 0.0
21/08:30am 33.0 27.3 4.7 17 15.0 S 24 30 13 16 1017.1 1015.9 0.0
21/08:00am 31.0 25.0 5.4 20 13.6 S 26 35 14 19 1016.9 1015.7 0.0
21/07:30am 29.2 24.0 7.2 25 11.9 SSE 24 30 13 16 1016.8 1015.6 0.0
21/07:00am 27.4 23.3 7.8 29 10.6 S 19 22 10 12 1016.5 1015.4 0.0
21/06:30am 25.3 22.0 7.9 33 9.3 S 15 20 8 11 1016.3 1015.2 0.0
21/06:00am 23.5 19.7 7.6 36 8.4 S 17 20 9 11 1015.9 1014.8 0.0
21/05:30am 21.6 18.6 7.8 41 7.2 S 13 15 7 8 1015.4 1014.3 0.0
21/05:00am 21.7 19.0 7.5 40 7.4 WSW 11 13 6 7 1015.1 1013.9 0.0
21/04:30am 21.8 19.1 7.2 39 7.6 SW 11 13 6 7 1015.0 1013.8 0.0
21/04:00am 23.1 20.0 7.2 36 8.3 WSW 13 17 7 9 1014.8 1013.6 0.0
21/03:30am 22.9 18.9 6.6 35 8.4 WSW 17 19 9 10 1014.7 1013.5 0.0
21/03:00am 22.9 19.2 6.2 34 8.6 WSW 15 17 8 9 1014.8 1013.6 0.0
21/02:30am 23.5 20.5 5.9 32 9.0 WSW 11 15 6 8 1014.8 1013.6 0.0
21/02:00am 23.8 19.9 7.0 34 8.8 WSW 17 19 9 10 1014.6 1013.4 0.0
21/01:30am 24.2 20.5 7.8 35 8.7 WSW 17 20 9 11 1014.7 1013.5 0.0
21/01:00am 24.0 21.3 8.8 38 8.2 W 13 17 7 9 1015.0 1013.8 0.0
21/12:30am 24.0 21.5 12.3 48 6.7 W 17 20 9 11 1015.1 1013.9 0.0
21/12:00am 23.3 23.1 14.8 59 5.1 W 9 11 5 6 1015.4 1014.3 0.0
 
Date/Time
WST
Temp
°C
App
Temp
°C
Dew
Point
Rel
Hum
%
Delta-T
°C
Wind Press
QNH
hPa
Press
MSL
hPa
Rain
since 9 am
mm
Dir
 
Spd
km/h
Gust
km/h
Spd
kts
Gust
kts
20/11:30pm 23.2 23.5 15.0 60 4.9 NW 7 9 4 5 1015.7 1014.6 0.0
20/11:00pm 23.6 23.5 14.9 58 5.2 NNW 9 11 5 6 1015.9 1014.8 0.0
20/10:30pm 23.9 24.2 14.9 57 5.4 NNW 7 9 4 5 1016.1 1015.0 0.0
20/10:00pm 24.2 24.4 15.7 59 5.2 NNW 9 13 5 7 1016.1 1015.0 0.0
20/09:30pm 24.7 24.7 17.2 63 4.7 NNW 13 17 7 9 1015.9 1014.8 0.0
20/09:00pm 25.4 26.2 17.3 61 5.1 NNW 9 11 5 6 1015.8 1014.7 0.0
20/08:30pm 26.4 27.0 16.9 56 5.9 N 9 11 5 6 1015.5 1014.4 0.0
20/08:00pm 27.6 27.4 16.6 51 6.9 NW 13 15 7 8 1015.1 1013.9 0.0
20/07:30pm 28.5 27.7 16.1 47 7.7 NW 15 20 8 11 1014.6 1013.4 0.0
20/07:00pm 29.8 27.9 15.1 40 9.1 NW 19 24 10 13 1014.0 1012.8 0.0
20/06:30pm 31.5 28.7 13.3 33 11.0 NNW 20 26 11 14 1013.5 1012.3 0.0
20/06:00pm 33.7 29.8 10.9 25 13.4 NNW 22 28 12 15 1013.2 1012.0 0.0
20/05:30pm 35.6 30.7 8.4 19 15.5 NW 24 35 13 19 1012.8 1011.6 0.0
20/05:00pm 36.8 32.1 5.9 15 17.1 WNW 20 32 11 17 1012.3 1011.1 0.0
20/04:30pm 37.6 32.4 3.4 12 18.2 WNW 20 28 11 15 1011.9 1010.7 0.0
20/04:00pm 38.1 34.3 3.8 12 18.5 NNW 13 22 7 12 1011.9 1010.7 0.0
20/03:30pm 38.0 33.8 3.7 12 18.4 W 15 28 8 15 1011.9 1010.7 0.0
20/03:00pm 38.3 33.2 3.9 12 18.6 W 20 33 11 18 1012.1 1010.9 0.0
20/02:30pm 37.4 33.1 3.2 12 18.2 W 15 30 8 16 1012.3 1011.1 0.0
20/02:00pm 37.7 32.7 3.4 12 18.3 W 19 32 10 17 1012.7 1011.5 0.0
20/01:30pm 37.6 33.0 5.6 14 17.6 W 19 26 10 14 1013.1 1011.9 0.0
20/01:00pm 36.5 32.3 5.7 15 16.9 WNW 17 24 9 13 1013.7 1012.5 0.0
20/12:30pm 36.1 32.8 6.3 16 16.5 SSW 13 20 7 11 1014.0 1012.8 0.0
20/12:00pm 34.8 31.8 6.2 17 15.7 W 11 26 6 14 1014.7 1013.5 0.0
20/11:30am 34.5 31.3 6.7 18 15.3 W 13 20 7 11 1015.2 1014.1 0.0
20/11:00am 33.2 30.3 6.5 19 14.6 S 11 19 6 10 1015.5 1014.4 0.0
20/10:30am 33.3 30.5 5.0 17 15.1 SW 9 17 5 9 1015.8 1014.7 0.0

Other Formats:

Comma delimited format used in spreadsheet applications
http://www.bom.gov.au/fwo/IDW60801/IDW60801.99311.axf

JavaScript Object Notation format (JSON) in row-major order
http://www.bom.gov.au/fwo/IDW60801/IDW60801.99311.json